sensor_id;sensor_type;location;lat;lon;timestamp;pressure;altitude;pressure_sealevel;temperature;humidity
73516;BME280;61763;51.416;5.442;2023-07-29T00:01:47;100682.59;;;16.81;100.00
73516;BME280;61763;51.416;5.442;2023-07-29T00:04:14;100690.41;;;16.86;100.00
73516;BME280;61763;51.416;5.442;2023-07-29T00:06:39;100684.75;;;16.89;100.00
73516;BME280;61763;51.416;5.442;2023-07-29T00:09:05;100687.97;;;16.94;100.00
73516;BME280;61763;51.416;5.442;2023-07-29T00:11:30;100690.44;;;16.97;100.00
73516;BME280;61763;51.416;5.442;2023-07-29T00:13:59;100692.94;;;17.00;100.00
73516;BME280;61763;51.416;5.442;2023-07-29T00:16:24;100695.28;;;17.05;100.00
73516;BME280;61763;51.416;5.442;2023-07-29T00:18:49;100696.06;;;17.07;100.00
73516;BME280;61763;51.416;5.442;2023-07-29T00:21:15;100696.78;;;17.09;100.00
73516;BME280;61763;51.416;5.442;2023-07-29T00:23:40;100694.81;;;17.11;100.00
73516;BME280;61763;51.416;5.442;2023-07-29T00:26:06;100687.38;;;17.13;100.00
73516;BME280;61763;51.416;5.442;2023-07-29T00:28:31;100679.06;;;17.14;100.00
73516;BME280;61763;51.416;5.442;2023-07-29T00:30:57;100695.56;;;17.13;100.00
73516;BME280;61763;51.416;5.442;2023-07-29T00:33:22;100688.22;;;17.13;100.00
73516;BME280;61763;51.416;5.442;2023-07-29T00:35:47;100678.59;;;17.09;100.00
73516;BME280;61763;51.416;5.442;2023-07-29T00:38:13;100669.78;;;17.06;100.00
73516;BME280;61763;51.416;5.442;2023-07-29T00:40:38;100657.50;;;17.00;100.00
73516;BME280;61763;51.416;5.442;2023-07-29T00:43:04;100666.91;;;16.96;100.00
73516;BME280;61763;51.416;5.442;2023-07-29T00:45:30;100668.53;;;16.87;100.00
73516;BME280;61763;51.416;5.442;2023-07-29T00:47:57;100663.63;;;16.79;100.00
73516;BME280;61763;51.416;5.442;2023-07-29T00:50:22;100657.72;;;16.74;100.00
73516;BME280;61763;51.416;5.442;2023-07-29T00:52:49;100651.63;;;16.71;100.00
73516;BME280;61763;51.416;5.442;2023-07-29T00:55:14;100662.03;;;16.66;100.00
73516;BME280;61763;51.416;5.442;2023-07-29T00:57:40;100657.81;;;16.84;100.00
73516;BME280;61763;51.416;5.442;2023-07-29T01:00:07;100656.84;;;16.85;100.00
73516;BME280;61763;51.416;5.442;2023-07-29T01:02:34;100663.41;;;16.82;100.00
73516;BME280;61763;51.416;5.442;2023-07-29T01:05:00;100668.84;;;16.82;100.00
73516;BME280;61763;51.416;5.442;2023-07-29T01:10:07;100655.84;;;16.86;100.00
73516;BME280;61763;51.416;5.442;2023-07-29T01:15:36;100662.84;;;16.90;100.00
73516;BME280;61763;51.416;5.442;2023-07-29T01:18:06;100661.56;;;16.94;100.00
73516;BME280;61763;51.416;5.442;2023-07-29T01:20:37;100657.75;;;16.97;100.00
73516;BME280;61763;51.416;5.442;2023-07-29T01:23:04;100663.09;;;17.10;100.00
73516;BME280;61763;51.416;5.442;2023-07-29T01:25:29;100663.22;;;17.08;100.00
73516;BME280;61763;51.416;5.442;2023-07-29T01:27:55;100661.47;;;17.07;100.00
73516;BME280;61763;51.416;5.442;2023-07-29T01:30:22;100663.47;;;17.05;100.00
73516;BME280;61763;51.416;5.442;2023-07-29T01:38:21;100661.47;;;17.07;100.00
73516;BME280;61763;51.416;5.442;2023-07-29T01:40:50;100652.44;;;17.07;100.00
73516;BME280;61763;51.416;5.442;2023-07-29T01:43:16;100655.78;;;16.99;100.00
73516;BME280;61763;51.416;5.442;2023-07-29T01:45:45;100655.25;;;16.94;100.00
73516;BME280;61763;51.416;5.442;2023-07-29T01:48:11;100650.19;;;16.89;100.00
73516;BME280;61763;51.416;5.442;2023-07-29T01:50:36;100654.97;;;16.86;100.00
73516;BME280;61763;51.416;5.442;2023-07-29T01:53:02;100650.13;;;16.78;100.00
73516;BME280;61763;51.416;5.442;2023-07-29T01:55:29;100650.50;;;16.73;100.00
73516;BME280;61763;51.416;5.442;2023-07-29T01:57:54;100652.88;;;16.67;100.00
73516;BME280;61763;51.416;5.442;2023-07-29T02:00:21;100657.31;;;16.68;100.00
73516;BME280;61763;51.416;5.442;2023-07-29T02:02:46;100649.13;;;16.68;100.00
73516;BME280;61763;51.416;5.442;2023-07-29T02:05:11;100643.44;;;16.59;100.00
73516;BME280;61763;51.416;5.442;2023-07-29T02:07:37;100641.56;;;16.60;100.00
73516;BME280;61763;51.416;5.442;2023-07-29T02:10:02;100642.31;;;16.62;100.00
73516;BME280;61763;51.416;5.442;2023-07-29T02:12:28;100641.22;;;16.64;100.00
73516;BME280;61763;51.416;5.442;2023-07-29T02:14:53;100651.25;;;16.64;100.00
73516;BME280;61763;51.416;5.442;2023-07-29T02:17:19;100633.41;;;16.60;100.00
73516;BME280;61763;51.416;5.442;2023-07-29T02:19:46;100631.28;;;16.52;100.00
73516;BME280;61763;51.416;5.442;2023-07-29T02:22:16;100632.88;;;16.43;100.00
73516;BME280;61763;51.416;5.442;2023-07-29T02:24:42;100630.16;;;16.43;100.00
73516;BME280;61763;51.416;5.442;2023-07-29T02:27:07;100622.94;;;16.31;100.00
73516;BME280;61763;51.416;5.442;2023-07-29T02:29:32;100626.91;;;16.27;100.00
73516;BME280;61763;51.416;5.442;2023-07-29T02:31:59;100624.63;;;16.21;100.00
73516;BME280;61763;51.416;5.442;2023-07-29T02:34:24;100631.56;;;16.14;100.00
73516;BME280;61763;51.416;5.442;2023-07-29T02:36:50;100633.28;;;16.15;100.00
73516;BME280;61763;51.416;5.442;2023-07-29T02:39:15;100623.00;;;16.07;100.00
73516;BME280;61763;51.416;5.442;2023-07-29T02:41:40;100627.16;;;16.00;100.00
73516;BME280;61763;51.416;5.442;2023-07-29T02:44:06;100626.56;;;16.07;100.00
73516;BME280;61763;51.416;5.442;2023-07-29T02:46:31;100620.63;;;16.02;100.00
73516;BME280;61763;51.416;5.442;2023-07-29T02:48:57;100610.84;;;16.00;100.00
73516;BME280;61763;51.416;5.442;2023-07-29T02:51:22;100620.09;;;15.97;100.00
73516;BME280;61763;51.416;5.442;2023-07-29T02:53:47;100617.25;;;15.99;100.00
73516;BME280;61763;51.416;5.442;2023-07-29T02:56:13;100627.06;;;16.01;100.00
73516;BME280;61763;51.416;5.442;2023-07-29T02:58:38;100615.19;;;16.02;100.00
73516;BME280;61763;51.416;5.442;2023-07-29T03:01:05;100611.50;;;16.03;100.00
73516;BME280;61763;51.416;5.442;2023-07-29T03:03:31;100615.44;;;15.99;100.00
73516;BME280;61763;51.416;5.442;2023-07-29T03:06:06;100606.84;;;15.92;100.00
73516;BME280;61763;51.416;5.442;2023-07-29T03:08:32;100609.69;;;15.91;100.00
73516;BME280;61763;51.416;5.442;2023-07-29T03:10:58;100608.31;;;15.85;100.00
73516;BME280;61763;51.416;5.442;2023-07-29T03:13:23;100607.22;;;15.88;100.00
73516;BME280;61763;51.416;5.442;2023-07-29T03:15:49;100609.44;;;15.83;100.00
73516;BME280;61763;51.416;5.442;2023-07-29T03:18:15;100605.81;;;15.82;100.00
73516;BME280;61763;51.416;5.442;2023-07-29T03:20:41;100611.56;;;15.90;100.00
73516;BME280;61763;51.416;5.442;2023-07-29T03:23:06;100627.22;;;15.87;100.00
73516;BME280;61763;51.416;5.442;2023-07-29T03:25:32;100620.69;;;15.89;100.00
73516;BME280;61763;51.416;5.442;2023-07-29T03:27:58;100626.38;;;15.86;100.00
73516;BME280;61763;51.416;5.442;2023-07-29T03:30:23;100622.56;;;15.89;100.00
73516;BME280;61763;51.416;5.442;2023-07-29T03:32:49;100616.00;;;15.91;100.00
73516;BME280;61763;51.416;5.442;2023-07-29T03:35:15;100613.38;;;15.79;100.00
73516;BME280;61763;51.416;5.442;2023-07-29T03:37:41;100618.00;;;15.76;100.00
73516;BME280;61763;51.416;5.442;2023-07-29T03:40:07;100626.63;;;15.70;100.00
73516;BME280;61763;51.416;5.442;2023-07-29T03:42:34;100628.03;;;15.76;100.00
73516;BME280;61763;51.416;5.442;2023-07-29T03:44:59;100642.44;;;15.65;100.00
73516;BME280;61763;51.416;5.442;2023-07-29T03:47:24;100637.00;;;15.65;100.00
73516;BME280;61763;51.416;5.442;2023-07-29T03:49:50;100635.38;;;15.63;100.00
73516;BME280;61763;51.416;5.442;2023-07-29T03:52:15;100627.03;;;15.53;100.00
73516;BME280;61763;51.416;5.442;2023-07-29T03:54:40;100635.50;;;15.61;100.00
73516;BME280;61763;51.416;5.442;2023-07-29T03:57:06;100619.88;;;15.52;100.00
73516;BME280;61763;51.416;5.442;2023-07-29T03:59:32;100605.22;;;15.41;100.00
73516;BME280;61763;51.416;5.442;2023-07-29T04:01:57;100595.56;;;15.37;100.00
73516;BME280;61763;51.416;5.442;2023-07-29T04:04:22;100600.56;;;15.31;100.00
73516;BME280;61763;51.416;5.442;2023-07-29T04:06:48;100599.28;;;15.23;100.00
73516;BME280;61763;51.416;5.442;2023-07-29T04:09:13;100593.34;;;15.18;100.00
73516;BME280;61763;51.416;5.442;2023-07-29T04:11:38;100601.81;;;15.14;100.00
73516;BME280;61763;51.416;5.442;2023-07-29T04:14:04;100600.59;;;15.18;100.00
73516;BME280;61763;51.416;5.442;2023-07-29T04:16:29;100608.00;;;15.16;100.00
73516;BME280;61763;51.416;5.442;2023-07-29T04:18:55;100617.91;;;15.17;100.00
73516;BME280;61763;51.416;5.442;2023-07-29T04:21:20;100630.81;;;15.26;100.00
73516;BME280;61763;51.416;5.442;2023-07-29T04:23:45;100637.78;;;15.30;100.00
73516;BME280;61763;51.416;5.442;2023-07-29T04:26:11;100629.97;;;15.26;100.00
73516;BME280;61763;51.416;5.442;2023-07-29T04:28:36;100641.28;;;15.19;100.00
73516;BME280;61763;51.416;5.442;2023-07-29T04:31:02;100649.31;;;15.21;100.00
73516;BME280;61763;51.416;5.442;2023-07-29T04:33:29;100647.13;;;15.26;100.00
73516;BME280;61763;51.416;5.442;2023-07-29T04:35:55;100641.53;;;15.40;100.00
73516;BME280;61763;51.416;5.442;2023-07-29T04:38:20;100657.88;;;15.40;100.00
73516;BME280;61763;51.416;5.442;2023-07-29T04:40:46;100655.44;;;15.49;100.00
73516;BME280;61763;51.416;5.442;2023-07-29T04:43:11;100649.94;;;15.62;100.00
73516;BME280;61763;51.416;5.442;2023-07-29T04:45:42;100644.16;;;15.66;100.00
73516;BME280;61763;51.416;5.442;2023-07-29T04:48:07;100642.09;;;15.70;100.00
73516;BME280;61763;51.416;5.442;2023-07-29T04:50:33;100638.16;;;15.74;100.00
73516;BME280;61763;51.416;5.442;2023-07-29T04:52:58;100642.41;;;15.78;100.00
73516;BME280;61763;51.416;5.442;2023-07-29T04:55:24;100641.06;;;15.84;100.00
73516;BME280;61763;51.416;5.442;2023-07-29T04:57:49;100642.59;;;15.88;100.00
73516;BME280;61763;51.416;5.442;2023-07-29T05:00:15;100643.91;;;15.82;100.00
73516;BME280;61763;51.416;5.442;2023-07-29T05:02:41;100654.06;;;15.80;100.00
73516;BME280;61763;51.416;5.442;2023-07-29T05:05:06;100653.94;;;15.82;100.00
73516;BME280;61763;51.416;5.442;2023-07-29T05:07:33;100658.69;;;15.91;100.00
73516;BME280;61763;51.416;5.442;2023-07-29T05:09:59;100666.97;;;15.89;100.00
73516;BME280;61763;51.416;5.442;2023-07-29T05:12:24;100657.22;;;15.98;100.00
73516;BME280;61763;51.416;5.442;2023-07-29T05:14:49;100659.13;;;16.09;100.00
73516;BME280;61763;51.416;5.442;2023-07-29T05:17:15;100652.22;;;16.16;100.00
73516;BME280;61763;51.416;5.442;2023-07-29T05:19:40;100651.84;;;16.21;100.00
73516;BME280;61763;51.416;5.442;2023-07-29T05:22:05;100649.19;;;16.32;100.00
73516;BME280;61763;51.416;5.442;2023-07-29T05:24:31;100646.94;;;16.26;100.00
73516;BME280;61763;51.416;5.442;2023-07-29T05:26:56;100644.59;;;16.21;100.00
73516;BME280;61763;51.416;5.442;2023-07-29T05:29:22;100653.09;;;16.17;100.00
73516;BME280;61763;51.416;5.442;2023-07-29T05:31:47;100653.66;;;16.09;100.00
73516;BME280;61763;51.416;5.442;2023-07-29T05:34:12;100653.19;;;16.04;100.00
73516;BME280;61763;51.416;5.442;2023-07-29T05:36:38;100649.00;;;16.11;100.00
73516;BME280;61763;51.416;5.442;2023-07-29T05:39:04;100651.47;;;16.14;100.00
73516;BME280;61763;51.416;5.442;2023-07-29T05:41:29;100651.38;;;16.16;100.00
73516;BME280;61763;51.416;5.442;2023-07-29T05:43:55;100649.63;;;16.15;100.00
73516;BME280;61763;51.416;5.442;2023-07-29T05:46:20;100644.22;;;16.26;100.00
73516;BME280;61763;51.416;5.442;2023-07-29T05:48:45;100650.28;;;16.29;100.00
73516;BME280;61763;51.416;5.442;2023-07-29T05:51:12;100655.53;;;16.44;100.00
73516;BME280;61763;51.416;5.442;2023-07-29T05:53:37;100651.59;;;16.48;100.00
73516;BME280;61763;51.416;5.442;2023-07-29T05:56:03;100643.81;;;16.66;100.00
73516;BME280;61763;51.416;5.442;2023-07-29T05:58:28;100646.09;;;16.95;100.00
73516;BME280;61763;51.416;5.442;2023-07-29T06:00:56;100643.75;;;17.13;100.00
73516;BME280;61763;51.416;5.442;2023-07-29T06:03:22;100642.75;;;17.14;100.00
73516;BME280;61763;51.416;5.442;2023-07-29T06:05:49;100638.28;;;17.24;100.00
73516;BME280;61763;51.416;5.442;2023-07-29T06:08:14;100636.03;;;17.18;100.00
73516;BME280;61763;51.416;5.442;2023-07-29T06:10:39;100621.94;;;17.24;100.00
73516;BME280;61763;51.416;5.442;2023-07-29T06:13:05;100619.53;;;17.54;100.00
73516;BME280;61763;51.416;5.442;2023-07-29T06:15:31;100620.78;;;17.82;100.00
73516;BME280;61763;51.416;5.442;2023-07-29T06:17:56;100619.59;;;18.07;100.00
73516;BME280;61763;51.416;5.442;2023-07-29T06:20:21;100616.88;;;18.28;100.00
73516;BME280;61763;51.416;5.442;2023-07-29T06:22:47;100621.47;;;18.49;100.00
73516;BME280;61763;51.416;5.442;2023-07-29T06:25:12;100618.31;;;18.74;100.00
73516;BME280;61763;51.416;5.442;2023-07-29T06:27:37;100624.84;;;18.83;100.00
73516;BME280;61763;51.416;5.442;2023-07-29T06:30:03;100619.84;;;18.88;100.00
73516;BME280;61763;51.416;5.442;2023-07-29T06:32:28;100622.78;;;18.97;100.00
73516;BME280;61763;51.416;5.442;2023-07-29T06:34:54;100624.25;;;19.01;100.00
73516;BME280;61763;51.416;5.442;2023-07-29T06:37:20;100626.63;;;18.94;100.00
73516;BME280;61763;51.416;5.442;2023-07-29T06:39:45;100617.34;;;18.85;100.00
73516;BME280;61763;51.416;5.442;2023-07-29T06:42:11;100621.97;;;18.64;100.00
73516;BME280;61763;51.416;5.442;2023-07-29T06:44:36;100634.69;;;18.44;100.00
73516;BME280;61763;51.416;5.442;2023-07-29T06:47:01;100633.19;;;18.61;100.00
73516;BME280;61763;51.416;5.442;2023-07-29T06:49:27;100632.97;;;18.73;100.00
73516;BME280;61763;51.416;5.442;2023-07-29T06:51:52;100638.44;;;18.95;100.00
73516;BME280;61763;51.416;5.442;2023-07-29T06:54:17;100642.53;;;19.10;100.00
73516;BME280;61763;51.416;5.442;2023-07-29T06:56:43;100646.75;;;19.14;100.00
73516;BME280;61763;51.416;5.442;2023-07-29T06:59:08;100645.47;;;19.28;100.00
73516;BME280;61763;51.416;5.442;2023-07-29T07:01:34;100646.09;;;19.41;100.00
73516;BME280;61763;51.416;5.442;2023-07-29T07:03:59;100647.56;;;19.46;100.00
73516;BME280;61763;51.416;5.442;2023-07-29T07:06:24;100646.25;;;19.40;100.00
73516;BME280;61763;51.416;5.442;2023-07-29T07:08:50;100655.34;;;19.40;100.00
73516;BME280;61763;51.416;5.442;2023-07-29T07:11:16;100648.97;;;19.81;100.00
73516;BME280;61763;51.416;5.442;2023-07-29T07:13:42;100636.88;;;20.03;100.00
73516;BME280;61763;51.416;5.442;2023-07-29T07:16:07;100644.50;;;20.38;100.00
73516;BME280;61763;51.416;5.442;2023-07-29T07:18:32;100645.06;;;20.12;100.00
73516;BME280;61763;51.416;5.442;2023-07-29T07:20:58;100650.84;;;20.29;100.00
73516;BME280;61763;51.416;5.442;2023-07-29T07:23:23;100653.44;;;20.30;100.00
73516;BME280;61763;51.416;5.442;2023-07-29T07:25:50;100642.59;;;20.48;100.00
73516;BME280;61763;51.416;5.442;2023-07-29T07:28:16;100649.53;;;20.53;100.00
73516;BME280;61763;51.416;5.442;2023-07-29T07:30:42;100654.97;;;20.62;100.00
73516;BME280;61763;51.416;5.442;2023-07-29T07:33:07;100663.94;;;20.45;100.00
73516;BME280;61763;51.416;5.442;2023-07-29T07:35:33;100667.41;;;20.57;100.00
73516;BME280;61763;51.416;5.442;2023-07-29T07:37:58;100666.13;;;20.51;100.00
73516;BME280;61763;51.416;5.442;2023-07-29T07:40:26;100667.69;;;20.54;100.00
73516;BME280;61763;51.416;5.442;2023-07-29T07:42:52;100660.34;;;20.44;100.00
73516;BME280;61763;51.416;5.442;2023-07-29T07:45:17;100658.75;;;20.42;100.00
73516;BME280;61763;51.416;5.442;2023-07-29T07:47:43;100662.97;;;20.17;100.00
73516;BME280;61763;51.416;5.442;2023-07-29T07:50:09;100669.19;;;20.19;100.00
73516;BME280;61763;51.416;5.442;2023-07-29T07:52:34;100671.75;;;20.10;100.00
73516;BME280;61763;51.416;5.442;2023-07-29T07:54:59;100673.06;;;20.16;100.00
73516;BME280;61763;51.416;5.442;2023-07-29T07:57:25;100665.41;;;20.39;100.00
73516;BME280;61763;51.416;5.442;2023-07-29T07:59:50;100671.16;;;20.75;100.00
73516;BME280;61763;51.416;5.442;2023-07-29T08:02:17;100667.22;;;21.25;100.00
73516;BME280;61763;51.416;5.442;2023-07-29T08:04:43;100670.13;;;21.61;100.00
73516;BME280;61763;51.416;5.442;2023-07-29T08:07:08;100671.00;;;21.80;100.00
73516;BME280;61763;51.416;5.442;2023-07-29T08:09:34;100661.22;;;21.95;100.00
73516;BME280;61763;51.416;5.442;2023-07-29T08:11:59;100670.59;;;22.38;100.00
73516;BME280;61763;51.416;5.442;2023-07-29T08:14:24;100660.69;;;22.46;100.00
73516;BME280;61763;51.416;5.442;2023-07-29T08:16:51;100665.53;;;22.52;100.00
73516;BME280;61763;51.416;5.442;2023-07-29T08:19:17;100667.84;;;22.38;100.00
73516;BME280;61763;51.416;5.442;2023-07-29T08:21:42;100678.50;;;22.23;100.00
73516;BME280;61763;51.416;5.442;2023-07-29T08:24:07;100671.59;;;21.83;100.00
73516;BME280;61763;51.416;5.442;2023-07-29T08:26:33;100675.31;;;21.64;100.00
73516;BME280;61763;51.416;5.442;2023-07-29T08:28:58;100676.78;;;21.49;100.00
73516;BME280;61763;51.416;5.442;2023-07-29T08:31:23;100674.09;;;21.11;100.00
73516;BME280;61763;51.416;5.442;2023-07-29T08:33:49;100676.72;;;21.03;100.00
73516;BME280;61763;51.416;5.442;2023-07-29T08:36:14;100680.97;;;21.15;100.00
73516;BME280;61763;51.416;5.442;2023-07-29T08:38:40;100670.09;;;21.33;100.00
73516;BME280;61763;51.416;5.442;2023-07-29T08:41:18;100667.50;;;21.32;100.00
73516;BME280;61763;51.416;5.442;2023-07-29T08:44:09;100672.72;;;21.25;100.00
73516;BME280;61763;51.416;5.442;2023-07-29T08:46:36;100676.91;;;21.29;100.00
73516;BME280;61763;51.416;5.442;2023-07-29T08:49:02;100670.09;;;21.33;100.00
73516;BME280;61763;51.416;5.442;2023-07-29T08:51:28;100675.22;;;21.74;100.00
73516;BME280;61763;51.416;5.442;2023-07-29T08:53:55;100664.94;;;22.04;100.00
73516;BME280;61763;51.416;5.442;2023-07-29T08:56:20;100661.38;;;22.30;100.00
73516;BME280;61763;51.416;5.442;2023-07-29T08:58:46;100667.06;;;22.72;100.00
73516;BME280;61763;51.416;5.442;2023-07-29T09:01:12;100648.88;;;23.06;100.00
73516;BME280;61763;51.416;5.442;2023-07-29T09:03:38;100650.09;;;23.38;100.00
73516;BME280;61763;51.416;5.442;2023-07-29T09:06:05;100648.59;;;23.17;100.00
73516;BME280;61763;51.416;5.442;2023-07-29T09:08:31;100657.00;;;22.81;100.00
73516;BME280;61763;51.416;5.442;2023-07-29T09:10:57;100657.56;;;22.67;100.00
73516;BME280;61763;51.416;5.442;2023-07-29T09:13:22;100670.63;;;22.29;100.00
73516;BME280;61763;51.416;5.442;2023-07-29T09:15:48;100665.63;;;22.06;100.00
73516;BME280;61763;51.416;5.442;2023-07-29T09:18:18;100650.84;;;22.25;100.00
73516;BME280;61763;51.416;5.442;2023-07-29T09:20:46;100660.53;;;22.47;100.00
73516;BME280;61763;51.416;5.442;2023-07-29T09:23:13;100653.28;;;22.28;100.00
73516;BME280;61763;51.416;5.442;2023-07-29T09:25:39;100657.69;;;22.39;100.00
73516;BME280;61763;51.416;5.442;2023-07-29T09:28:13;100650.06;;;22.51;100.00
73516;BME280;61763;51.416;5.442;2023-07-29T09:30:39;100645.94;;;22.47;100.00
73516;BME280;61763;51.416;5.442;2023-07-29T09:33:05;100654.41;;;22.35;100.00
73516;BME280;61763;51.416;5.442;2023-07-29T09:35:33;100642.13;;;22.48;100.00
73516;BME280;61763;51.416;5.442;2023-07-29T09:37:59;100648.94;;;22.62;100.00
73516;BME280;61763;51.416;5.442;2023-07-29T09:40:25;100651.59;;;22.71;100.00
73516;BME280;61763;51.416;5.442;2023-07-29T09:42:54;100646.13;;;23.06;100.00
73516;BME280;61763;51.416;5.442;2023-07-29T09:45:26;100651.09;;;23.29;100.00
73516;BME280;61763;51.416;5.442;2023-07-29T09:47:53;100651.31;;;23.09;100.00
73516;BME280;61763;51.416;5.442;2023-07-29T09:50:19;100663.66;;;22.79;100.00
73516;BME280;61763;51.416;5.442;2023-07-29T09:52:48;100661.31;;;22.39;100.00
73516;BME280;61763;51.416;5.442;2023-07-29T09:55:17;100671.03;;;22.52;100.00
73516;BME280;61763;51.416;5.442;2023-07-29T09:57:43;100663.09;;;22.13;100.00
73516;BME280;61763;51.416;5.442;2023-07-29T10:00:11;100659.97;;;21.90;100.00
73516;BME280;61763;51.416;5.442;2023-07-29T10:02:42;100659.63;;;21.47;100.00
73516;BME280;61763;51.416;5.442;2023-07-29T10:05:08;100670.59;;;21.47;100.00
73516;BME280;61763;51.416;5.442;2023-07-29T10:07:37;100660.06;;;21.70;100.00
73516;BME280;61763;51.416;5.442;2023-07-29T10:10:04;100654.06;;;21.84;100.00
73516;BME280;61763;51.416;5.442;2023-07-29T10:12:34;100655.59;;;22.33;100.00
73516;BME280;61763;51.416;5.442;2023-07-29T10:15:03;100653.22;;;22.82;100.00
73516;BME280;61763;51.416;5.442;2023-07-29T10:17:29;100656.56;;;23.20;100.00
73516;BME280;61763;51.416;5.442;2023-07-29T10:19:56;100650.34;;;23.53;100.00
73516;BME280;61763;51.416;5.442;2023-07-29T10:22:43;100647.03;;;24.08;100.00
73516;BME280;61763;51.416;5.442;2023-07-29T10:27:43;100644.44;;;24.89;100.00
73516;BME280;61763;51.416;5.442;2023-07-29T10:30:12;100646.72;;;24.69;100.00
73516;BME280;61763;51.416;5.442;2023-07-29T10:32:41;100652.22;;;24.20;100.00
73516;BME280;61763;51.416;5.442;2023-07-29T10:35:08;100640.00;;;24.47;100.00
73516;BME280;61763;51.416;5.442;2023-07-29T10:37:34;100640.19;;;24.62;100.00
73516;BME280;61763;51.416;5.442;2023-07-29T10:40:00;100636.53;;;24.53;100.00
73516;BME280;61763;51.416;5.442;2023-07-29T10:42:25;100633.78;;;24.28;100.00
73516;BME280;61763;51.416;5.442;2023-07-29T10:44:54;100633.09;;;24.18;100.00
73516;BME280;61763;51.416;5.442;2023-07-29T10:47:23;100633.75;;;24.20;100.00
73516;BME280;61763;51.416;5.442;2023-07-29T10:49:54;100635.50;;;24.05;100.00
73516;BME280;61763;51.416;5.442;2023-07-29T10:55:00;100622.91;;;23.86;100.00
73516;BME280;61763;51.416;5.442;2023-07-29T10:57:40;100620.50;;;23.99;100.00
73516;BME280;61763;51.416;5.442;2023-07-29T11:00:10;100619.44;;;23.84;100.00
73516;BME280;61763;51.416;5.442;2023-07-29T11:02:37;100630.31;;;23.93;100.00
73516;BME280;61763;51.416;5.442;2023-07-29T11:05:16;100624.06;;;23.83;100.00
73516;BME280;61763;51.416;5.442;2023-07-29T11:07:47;100620.56;;;23.56;100.00
73516;BME280;61763;51.416;5.442;2023-07-29T11:10:14;100628.75;;;23.40;100.00
73516;BME280;61763;51.416;5.442;2023-07-29T11:20:19;100628.88;;;22.43;100.00
73516;BME280;61763;51.416;5.442;2023-07-29T11:22:46;100633.19;;;22.10;100.00
73516;BME280;61763;51.416;5.442;2023-07-29T11:25:14;100640.75;;;21.90;100.00
73516;BME280;61763;51.416;5.442;2023-07-29T11:27:40;100654.34;;;21.63;100.00
73516;BME280;61763;51.416;5.442;2023-07-29T11:30:07;100644.06;;;21.10;100.00
73516;BME280;61763;51.416;5.442;2023-07-29T11:32:37;100643.91;;;20.54;100.00
73516;BME280;61763;51.416;5.442;2023-07-29T11:35:07;100646.22;;;20.20;100.00
73516;BME280;61763;51.416;5.442;2023-07-29T11:37:34;100658.28;;;20.86;100.00
73516;BME280;61763;51.416;5.442;2023-07-29T11:40:00;100649.66;;;21.46;100.00
73516;BME280;61763;51.416;5.442;2023-07-29T11:42:26;100631.69;;;21.61;100.00
73516;BME280;61763;51.416;5.442;2023-07-29T11:44:52;100629.72;;;22.26;100.00
73516;BME280;61763;51.416;5.442;2023-07-29T11:47:17;100614.78;;;22.46;100.00
73516;BME280;61763;51.416;5.442;2023-07-29T11:49:42;100619.19;;;22.57;100.00
73516;BME280;61763;51.416;5.442;2023-07-29T11:52:09;100618.69;;;22.62;100.00
73516;BME280;61763;51.416;5.442;2023-07-29T11:54:39;100610.78;;;22.40;100.00
73516;BME280;61763;51.416;5.442;2023-07-29T11:57:10;100610.03;;;22.12;100.00
73516;BME280;61763;51.416;5.442;2023-07-29T11:59:37;100619.28;;;21.75;100.00
73516;BME280;61763;51.416;5.442;2023-07-29T12:02:10;100617.81;;;21.63;100.00
73516;BME280;61763;51.416;5.442;2023-07-29T12:04:37;100624.03;;;21.27;100.00
73516;BME280;61763;51.416;5.442;2023-07-29T12:07:03;100637.03;;;20.97;100.00
73516;BME280;61763;51.416;5.442;2023-07-29T12:09:29;100630.91;;;20.56;100.00
73516;BME280;61763;51.416;5.442;2023-07-29T12:11:57;100640.63;;;20.02;100.00
73516;BME280;61763;51.416;5.442;2023-07-29T12:14:26;100636.34;;;19.68;100.00
73516;BME280;61763;51.416;5.442;2023-07-29T12:16:52;100634.91;;;19.54;100.00
73516;BME280;61763;51.416;5.442;2023-07-29T12:19:18;100649.72;;;19.52;100.00
73516;BME280;61763;51.416;5.442;2023-07-29T12:21:44;100649.69;;;19.32;100.00
73516;BME280;61763;51.416;5.442;2023-07-29T12:24:12;100663.78;;;19.28;100.00
73516;BME280;61763;51.416;5.442;2023-07-29T12:26:38;100676.72;;;19.25;100.00
73516;BME280;61763;51.416;5.442;2023-07-29T12:29:13;100669.53;;;19.24;100.00
73516;BME280;61763;51.416;5.442;2023-07-29T12:31:39;100681.84;;;19.09;100.00
73516;BME280;61763;51.416;5.442;2023-07-29T12:34:04;100751.34;;;19.06;100.00
73516;BME280;61763;51.416;5.442;2023-07-29T12:36:43;100757.38;;;18.03;100.00
73516;BME280;61763;51.416;5.442;2023-07-29T12:39:30;100745.88;;;16.97;100.00
73516;BME280;61763;51.416;5.442;2023-07-29T12:41:57;100745.38;;;16.68;100.00
73516;BME280;61763;51.416;5.442;2023-07-29T12:44:30;100730.94;;;16.43;100.00
73516;BME280;61763;51.416;5.442;2023-07-29T12:46:56;100733.19;;;16.50;100.00
73516;BME280;61763;51.416;5.442;2023-07-29T12:49:21;100734.13;;;16.73;100.00
73516;BME280;61763;51.416;5.442;2023-07-29T12:51:47;100728.50;;;16.98;100.00
73516;BME280;61763;51.416;5.442;2023-07-29T12:54:13;100729.00;;;17.15;100.00
73516;BME280;61763;51.416;5.442;2023-07-29T12:56:38;100722.81;;;17.58;100.00
73516;BME280;61763;51.416;5.442;2023-07-29T12:59:04;100709.28;;;17.91;100.00
73516;BME280;61763;51.416;5.442;2023-07-29T13:01:30;100702.16;;;18.32;100.00